createdAt,value
2023-02-19T00:00:01.250Z,9.06
2023-02-19T00:00:32.866Z,9.10
2023-02-19T00:01:24.656Z,9.09
2023-02-19T00:01:56.177Z,9.11
2023-02-19T00:02:27.727Z,9.07
2023-02-19T00:02:59.329Z,9.11
2023-02-19T00:03:30.872Z,9.11
2023-02-19T00:04:05.508Z,9.07
2023-02-19T00:04:37.080Z,9.06
2023-02-19T00:05:08.820Z,9.07
2023-02-19T00:05:40.455Z,9.09
2023-02-19T00:06:11.965Z,9.13
2023-02-19T00:06:44.826Z,9.11
2023-02-19T00:07:16.476Z,9.07
2023-02-19T00:07:47.993Z,9.07
2023-02-19T00:08:19.548Z,9.06
2023-02-19T00:08:51.081Z,9.11
2023-02-19T00:09:22.627Z,9.12
2023-02-19T00:09:54.189Z,9.11
2023-02-19T00:10:25.817Z,9.10
2023-02-19T00:11:08.187Z,9.08
2023-02-19T00:11:40.517Z,9.06
2023-02-19T00:12:12.046Z,9.09
2023-02-19T00:12:44.244Z,9.05
2023-02-19T00:13:15.755Z,9.08
2023-02-19T00:13:49.687Z,9.09
2023-02-19T00:14:21.953Z,9.10
2023-02-19T00:14:55.114Z,9.03
2023-02-19T00:15:26.758Z,9.04
2023-02-19T00:15:58.439Z,9.06
2023-02-19T00:16:38.241Z,9.04
2023-02-19T00:17:09.780Z,9.06
2023-02-19T00:17:41.297Z,9.04
2023-02-19T00:18:13.015Z,9.03
2023-02-19T00:18:45.495Z,9.03
2023-02-19T00:19:19.029Z,9.02
2023-02-19T00:19:50.573Z,9.05
2023-02-19T00:20:22.141Z,9.04
2023-02-19T00:20:56.370Z,9.04
2023-02-19T00:21:28.112Z,8.99
2023-02-19T00:21:59.705Z,9.05
2023-02-19T00:22:31.311Z,9.06
2023-02-19T00:23:02.919Z,9.02
2023-02-19T00:23:34.805Z,9.04
2023-02-19T00:24:07.501Z,9.09
2023-02-19T00:24:39.204Z,9.08
2023-02-19T00:25:10.763Z,9.08
2023-02-19T00:25:42.350Z,9.09
2023-02-19T00:26:18.626Z,9.07
2023-02-19T00:26:52.036Z,9.01
2023-02-19T00:27:23.804Z,9.07
2023-02-19T00:27:55.383Z,9.04
2023-02-19T00:28:28.050Z,9.05
2023-02-19T00:29:00.857Z,9.04
2023-02-19T00:29:32.450Z,9.05
2023-02-19T00:30:04.169Z,9.02
2023-02-19T00:30:35.748Z,9.09
2023-02-19T00:31:23.583Z,9.07
2023-02-19T00:31:55.315Z,9.08
2023-02-19T00:32:26.957Z,9.05
2023-02-19T00:32:58.619Z,9.06
2023-02-19T00:33:30.167Z,9.03
2023-02-19T00:34:05.417Z,9.02
2023-02-19T00:34:37.092Z,9.08
2023-02-19T00:35:08.760Z,9.04
2023-02-19T00:35:40.282Z,9.01
2023-02-19T00:36:12.995Z,9.06
2023-02-19T00:36:44.659Z,9.03
2023-02-19T00:37:16.258Z,9.05
2023-02-19T00:37:48.622Z,9.03
2023-02-19T00:38:20.148Z,9.06
2023-02-19T00:38:52.114Z,9.09
2023-02-19T00:39:23.674Z,9.08
2023-02-19T00:39:55.323Z,9.05
2023-02-19T00:40:26.938Z,9.03
2023-02-19T00:41:01.789Z,9.02
2023-02-19T00:41:33.508Z,9.00
2023-02-19T00:42:05.048Z,9.01
2023-02-19T00:42:36.631Z,9.01
2023-02-19T00:43:08.149Z,9.07
2023-02-19T00:43:39.683Z,9.08
2023-02-19T00:44:11.964Z,9.13
2023-02-19T00:44:43.486Z,9.09
2023-02-19T00:45:16.978Z,9.02
2023-02-19T00:45:48.496Z,9.02
2023-02-19T00:46:25.690Z,9.03
2023-02-19T00:46:58.432Z,9.02
2023-02-19T00:47:29.971Z,9.10
2023-02-19T00:48:01.547Z,9.05
2023-02-19T00:48:33.076Z,9.02
2023-02-19T00:49:06.155Z,9.03
2023-02-19T00:49:37.672Z,9.03
2023-02-19T00:50:09.454Z,9.01
2023-02-19T00:50:40.995Z,9.01
2023-02-19T00:51:12.701Z,9.04
2023-02-19T00:51:44.588Z,9.03
2023-02-19T00:52:16.150Z,9.01
2023-02-19T00:52:47.669Z,9.05
2023-02-19T00:53:19.439Z,9.03
2023-02-19T00:53:51.319Z,9.04
2023-02-19T00:54:23.964Z,8.97
2023-02-19T00:54:55.585Z,8.98
2023-02-19T00:55:27.103Z,8.98
2023-02-19T00:55:58.671Z,8.98
2023-02-19T00:56:30.328Z,8.99
2023-02-19T00:57:02.106Z,9.02
2023-02-19T00:57:33.728Z,9.01
2023-02-19T00:58:05.372Z,9.02
2023-02-19T00:58:37.300Z,9.01
2023-02-19T00:59:09.513Z,9.01
2023-02-19T00:59:41.031Z,9.03
2023-02-19T01:00:13.151Z,9.05
2023-02-19T01:00:44.653Z,9.01
2023-02-19T01:01:18.137Z,9.01
2023-02-19T01:01:49.935Z,9.03
2023-02-19T01:02:22.250Z,9.05
2023-02-19T01:02:54.816Z,9.07
2023-02-19T01:03:29.978Z,9.07
2023-02-19T01:04:01.605Z,9.07
2023-02-19T01:04:33.216Z,9.10
2023-02-19T01:05:05.507Z,9.03
2023-02-19T01:05:37.068Z,9.02
2023-02-19T01:06:10.022Z,8.99
2023-02-19T01:06:41.846Z,9.04
2023-02-19T01:07:13.542Z,8.99
2023-02-19T01:07:45.204Z,9.01
2023-02-19T01:08:17.388Z,9.01
2023-02-19T01:08:49.676Z,9.03
2023-02-19T01:09:21.284Z,9.02
2023-02-19T01:09:52.777Z,9.01
2023-02-19T01:10:24.316Z,9.01
2023-02-19T01:10:55.845Z,9.04
2023-02-19T01:11:27.755Z,8.98
2023-02-19T01:11:59.357Z,9.02
2023-02-19T01:12:31.364Z,9.05
2023-02-19T01:13:02.898Z,9.06
2023-02-19T01:13:35.138Z,9.02
2023-02-19T01:14:06.742Z,8.98
2023-02-19T01:14:38.971Z,8.96
2023-02-19T01:15:10.593Z,8.98
2023-02-19T01:15:42.461Z,8.99
2023-02-19T01:16:21.941Z,9.00
2023-02-19T01:16:53.525Z,8.99
2023-02-19T01:17:25.068Z,8.99
2023-02-19T01:17:56.918Z,8.97
2023-02-19T01:18:28.551Z,8.98
2023-02-19T01:19:00.501Z,8.99
2023-02-19T01:19:32.959Z,9.01
2023-02-19T01:20:04.900Z,8.99
2023-02-19T01:20:39.576Z,8.98
2023-02-19T01:21:16.315Z,9.02
2023-02-19T01:21:48.078Z,9.02
2023-02-19T01:22:19.664Z,9.02
2023-02-19T01:22:51.205Z,9.02
2023-02-19T01:23:23.242Z,9.01
2023-02-19T01:23:55.874Z,8.97
2023-02-19T01:24:29.490Z,9.00
2023-02-19T01:25:01.133Z,9.02
2023-02-19T01:25:32.671Z,9.01
2023-02-19T01:26:09.152Z,8.99
2023-02-19T01:26:40.792Z,9.01
2023-02-19T01:27:12.454Z,9.01
2023-02-19T01:27:44.123Z,8.97
2023-02-19T01:28:15.646Z,8.96
2023-02-19T01:28:48.411Z,9.01
2023-02-19T01:29:20.018Z,8.96
2023-02-19T01:29:51.665Z,8.99
2023-02-19T01:30:23.229Z,8.96
2023-02-19T01:31:00.795Z,8.98
2023-02-19T01:31:32.911Z,9.04
2023-02-19T01:32:06.494Z,8.99
2023-02-19T01:32:38.384Z,8.98
2023-02-19T01:33:10.252Z,8.99
2023-02-19T01:33:52.734Z,8.94
2023-02-19T01:34:24.410Z,8.96
2023-02-19T01:34:55.907Z,9.03
2023-02-19T01:35:27.440Z,9.03
2023-02-19T01:35:59.103Z,9.00
2023-02-19T01:36:33.386Z,8.98
2023-02-19T01:37:05.792Z,8.98
2023-02-19T01:37:37.466Z,8.94
2023-02-19T01:38:09.144Z,8.97
2023-02-19T01:38:40.976Z,8.95
2023-02-19T01:39:12.654Z,8.94
2023-02-19T01:39:44.249Z,8.96
2023-02-19T01:40:15.831Z,9.07
2023-02-19T01:40:56.841Z,8.99
2023-02-19T01:41:28.305Z,8.98
2023-02-19T01:42:00.617Z,8.95
2023-02-19T01:42:32.314Z,8.94
2023-02-19T01:43:04.139Z,8.93
2023-02-19T01:44:02.350Z,8.93
2023-02-19T01:44:33.899Z,8.91
2023-02-19T01:45:27.554Z,8.93
2023-02-19T01:45:59.583Z,8.95
2023-02-19T01:46:39.662Z,8.90
2023-02-19T01:47:12.150Z,8.93
2023-02-19T01:47:43.802Z,8.92
2023-02-19T01:48:25.338Z,8.90
2023-02-19T01:48:59.592Z,8.86
2023-02-19T01:49:37.834Z,8.89
2023-02-19T01:50:09.559Z,8.92
2023-02-19T01:50:59.868Z,8.90
2023-02-19T01:51:32.962Z,8.89
2023-02-19T01:52:11.582Z,8.90
2023-02-19T01:52:43.288Z,8.86
2023-02-19T01:53:17.164Z,8.86
2023-02-19T01:53:53.628Z,8.86
2023-02-19T01:54:27.694Z,8.85
2023-02-19T01:55:01.230Z,8.84
2023-02-19T01:55:33.970Z,8.86
2023-02-19T01:56:07.126Z,8.89
2023-02-19T01:56:41.145Z,8.84
2023-02-19T01:57:17.335Z,8.81
2023-02-19T01:57:53.095Z,8.83
2023-02-19T01:58:26.591Z,8.82
2023-02-19T01:58:59.141Z,8.83
2023-02-19T01:59:32.347Z,8.85
2023-02-19T02:00:09.571Z,8.85
2023-02-19T02:00:47.648Z,8.86
2023-02-19T02:01:19.422Z,8.85
2023-02-19T02:01:51.405Z,8.87
2023-02-19T02:02:25.103Z,8.93
2023-02-19T02:02:58.056Z,8.89
2023-02-19T02:03:29.864Z,8.88
2023-02-19T02:04:01.515Z,8.87
2023-02-19T02:04:33.638Z,8.85
2023-02-19T02:05:14.369Z,8.85
2023-02-19T02:06:05.806Z,8.81
2023-02-19T02:06:48.471Z,8.82
2023-02-19T02:07:38.497Z,8.79
2023-02-19T02:08:29.367Z,8.88
2023-02-19T02:09:19.240Z,8.86
2023-02-19T02:10:20.613Z,8.81
2023-02-19T02:10:52.913Z,8.80
2023-02-19T02:11:25.199Z,8.84
2023-02-19T02:11:56.809Z,8.78
2023-02-19T02:12:29.459Z,8.73
2023-02-19T02:13:01.091Z,8.74
2023-02-19T02:13:34.611Z,8.76
2023-02-19T02:14:06.308Z,8.73
2023-02-19T02:14:39.493Z,8.73
2023-02-19T02:15:13.211Z,8.74
2023-02-19T02:15:55.674Z,8.77
2023-02-19T02:16:39.895Z,8.86
2023-02-19T02:17:28.892Z,8.80
2023-02-19T02:18:23.304Z,8.71
2023-02-19T02:19:06.758Z,8.70
2023-02-19T02:19:47.106Z,8.70
2023-02-19T02:20:50.991Z,8.74
2023-02-19T02:21:41.804Z,8.71
2023-02-19T02:22:19.634Z,8.71
2023-02-19T02:23:00.728Z,8.72
2023-02-19T02:23:41.849Z,8.75
2023-02-19T02:24:35.277Z,8.70
2023-02-19T02:25:24.575Z,8.68
2023-02-19T02:26:10.978Z,8.65
2023-02-19T02:26:59.688Z,8.65
2023-02-19T02:28:01.191Z,8.67
2023-02-19T02:29:19.780Z,8.67
2023-02-19T02:30:24.102Z,8.69
2023-02-19T02:31:34.802Z,8.73
2023-02-19T02:32:11.913Z,8.70
2023-02-19T02:32:53.359Z,8.67
2023-02-19T02:33:30.991Z,8.66
2023-02-19T02:34:07.809Z,8.67
2023-02-19T02:34:58.981Z,8.63
2023-02-19T02:35:39.756Z,8.65
2023-02-19T02:36:29.460Z,8.65
2023-02-19T02:37:01.726Z,8.66
2023-02-19T02:37:35.899Z,8.63
2023-02-19T02:38:10.269Z,8.72
2023-02-19T02:38:43.249Z,8.73
2023-02-19T02:39:17.760Z,8.70
2023-02-19T02:39:51.150Z,8.72
2023-02-19T02:40:23.029Z,8.68
2023-02-19T02:40:55.118Z,8.69
2023-02-19T02:41:27.050Z,8.71
2023-02-19T02:42:18.823Z,8.67
2023-02-19T02:43:00.407Z,8.71
2023-02-19T02:43:32.455Z,8.68
2023-02-19T02:44:04.239Z,8.73
2023-02-19T02:44:36.974Z,8.72
2023-02-19T02:45:36.586Z,8.72
2023-02-19T02:46:34.168Z,8.65
2023-02-19T02:47:07.068Z,8.72
2023-02-19T02:47:45.385Z,8.75
2023-02-19T02:48:23.333Z,8.72
2023-02-19T02:48:59.168Z,8.71
2023-02-19T02:49:30.882Z,8.70
2023-02-19T02:50:05.632Z,8.66
2023-02-19T02:50:42.884Z,8.74
2023-02-19T02:51:22.661Z,8.77
2023-02-19T02:52:27.635Z,8.77
2023-02-19T02:53:24.598Z,8.72
2023-02-19T02:54:57.601Z,8.75
2023-02-19T02:55:31.811Z,8.72
2023-02-19T02:56:04.398Z,8.73
2023-02-19T02:56:40.316Z,8.75
2023-02-19T02:57:14.885Z,8.75
2023-02-19T02:57:52.352Z,8.68
2023-02-19T02:58:25.146Z,8.66
2023-02-19T02:59:01.659Z,8.68
2023-02-19T02:59:37.381Z,8.71
2023-02-19T03:00:09.720Z,8.66
2023-02-19T03:01:02.308Z,8.65
2023-02-19T03:02:18.837Z,8.68
2023-02-19T03:02:50.821Z,8.70
2023-02-19T03:03:24.497Z,8.70
2023-02-19T03:04:02.565Z,8.69
2023-02-19T03:05:04.967Z,8.71
2023-02-19T03:05:51.777Z,8.68
2023-02-19T03:06:24.424Z,8.67
2023-02-19T03:06:58.114Z,8.68
2023-02-19T03:07:36.270Z,8.67
2023-02-19T03:08:24.277Z,8.61
2023-02-19T03:08:55.878Z,8.73
2023-02-19T03:09:40.674Z,8.70
2023-02-19T03:10:18.632Z,8.66
2023-02-19T03:11:23.194Z,8.66
2023-02-19T03:12:15.068Z,8.62
2023-02-19T03:13:07.208Z,8.67
2023-02-19T03:13:57.626Z,8.66
2023-02-19T03:14:58.024Z,8.69
2023-02-19T03:15:55.976Z,8.66
2023-02-19T03:16:49.728Z,8.66
2023-02-19T03:18:02.069Z,8.70
2023-02-19T03:18:54.692Z,8.71
2023-02-19T03:19:27.819Z,8.65
2023-02-19T03:20:04.447Z,8.64
2023-02-19T03:20:40.716Z,8.66
2023-02-19T03:21:14.471Z,8.63
2023-02-19T03:21:53.196Z,8.62
2023-02-19T03:22:28.208Z,8.64
2023-02-19T03:23:02.124Z,8.64
2023-02-19T03:23:54.349Z,8.65
2023-02-19T03:24:50.995Z,8.60
2023-02-19T03:25:48.057Z,8.65
2023-02-19T03:26:25.103Z,8.65
2023-02-19T03:26:59.634Z,8.63
2023-02-19T03:27:34.727Z,8.59
2023-02-19T03:28:09.122Z,8.61
2023-02-19T03:29:01.473Z,8.67
2023-02-19T03:29:36.070Z,8.70
2023-02-19T03:30:16.624Z,8.69
2023-02-19T03:30:50.941Z,8.70
2023-02-19T03:31:24.821Z,8.67
2023-02-19T03:32:03.579Z,8.60
2023-02-19T03:32:45.906Z,8.66
2023-02-19T03:33:22.654Z,8.62
2023-02-19T03:33:57.301Z,8.67
2023-02-19T03:34:34.773Z,8.74
2023-02-19T03:35:10.305Z,8.72
2023-02-19T03:35:46.701Z,8.68
2023-02-19T03:36:25.714Z,8.68
2023-02-19T03:37:03.881Z,8.64
2023-02-19T03:37:42.100Z,8.64
2023-02-19T03:38:18.671Z,8.63
2023-02-19T03:38:59.740Z,8.64
2023-02-19T03:39:32.368Z,8.58
2023-02-19T03:40:05.299Z,8.62
2023-02-19T03:40:45.303Z,8.60
2023-02-19T03:41:25.630Z,8.60
2023-02-19T03:42:04.179Z,8.64
2023-02-19T03:42:46.478Z,8.66
2023-02-19T03:43:41.007Z,8.59
2023-02-19T03:44:31.386Z,8.56
2023-02-19T03:45:15.538Z,8.54
2023-02-19T03:45:53.092Z,8.54
2023-02-19T03:47:05.492Z,8.55
2023-02-19T03:47:49.958Z,8.54
2023-02-19T03:48:30.947Z,8.68
2023-02-19T03:49:11.173Z,8.63
2023-02-19T03:49:49.900Z,8.54
2023-02-19T03:50:28.961Z,8.64
2023-02-19T03:51:39.104Z,8.53
2023-02-19T03:52:39.625Z,8.52
2023-02-19T03:53:53.057Z,8.51
2023-02-19T03:54:43.512Z,8.50
2023-02-19T03:55:24.201Z,8.54
2023-02-19T03:56:19.392Z,8.55
2023-02-19T03:57:18.253Z,8.57
2023-02-19T03:57:56.431Z,8.54
2023-02-19T03:58:32.755Z,8.54
2023-02-19T03:59:16.121Z,8.55
2023-02-19T03:59:55.461Z,8.53
2023-02-19T04:00:53.997Z,8.53
2023-02-19T04:01:49.121Z,8.56
2023-02-19T04:02:41.758Z,8.56
2023-02-19T04:03:40.118Z,8.56
2023-02-19T04:04:30.736Z,8.56
2023-02-19T04:05:07.096Z,8.56
2023-02-19T04:05:44.671Z,8.53
2023-02-19T04:06:36.702Z,8.50
2023-02-19T04:07:08.480Z,8.50
2023-02-19T04:07:46.402Z,8.49
2023-02-19T04:08:20.627Z,8.49
2023-02-19T04:09:00.733Z,8.48
2023-02-19T04:09:43.988Z,8.54
2023-02-19T04:10:20.202Z,8.53
2023-02-19T04:10:55.619Z,8.52
2023-02-19T04:11:31.318Z,8.55
2023-02-19T04:12:07.796Z,8.56
2023-02-19T04:12:42.571Z,8.53
2023-02-19T04:13:21.687Z,8.50
2023-02-19T04:14:16.525Z,8.58
2023-02-19T04:15:15.132Z,8.54
2023-02-19T04:15:47.320Z,8.52
2023-02-19T04:16:23.160Z,8.50
2023-02-19T04:17:01.564Z,8.50
2023-02-19T04:17:49.342Z,8.52
2023-02-19T04:18:25.189Z,8.50
2023-02-19T04:19:00.642Z,8.51
2023-02-19T04:19:35.487Z,8.51
2023-02-19T04:20:09.714Z,8.49
2023-02-19T04:20:44.307Z,8.52
2023-02-19T04:21:16.589Z,8.53
2023-02-19T04:21:49.390Z,8.52
2023-02-19T04:22:22.061Z,8.49
2023-02-19T04:22:53.799Z,8.47
2023-02-19T04:23:26.976Z,8.55
2023-02-19T04:24:02.532Z,8.61
2023-02-19T04:24:47.285Z,8.61
2023-02-19T04:25:19.025Z,8.58
2023-02-19T04:25:55.086Z,8.52
2023-02-19T04:26:26.738Z,8.68
2023-02-19T04:26:58.589Z,8.62
2023-02-19T04:27:30.454Z,8.56
2023-02-19T04:28:02.713Z,8.62
2023-02-19T04:28:35.335Z,8.57
2023-02-19T04:29:07.000Z,8.59
2023-02-19T04:29:39.375Z,8.57
2023-02-19T04:30:16.192Z,8.58
2023-02-19T04:30:47.933Z,8.53
2023-02-19T04:31:19.752Z,8.53
2023-02-19T04:31:51.488Z,8.56
2023-02-19T04:32:23.098Z,8.55
2023-02-19T04:32:54.864Z,8.57
2023-02-19T04:33:26.631Z,8.54
2023-02-19T04:33:58.162Z,8.51
2023-02-19T04:34:29.763Z,8.55
2023-02-19T04:35:01.334Z,8.56
2023-02-19T04:35:32.946Z,8.59
2023-02-19T04:36:04.841Z,8.55
2023-02-19T04:36:36.475Z,8.48
2023-02-19T04:37:08.175Z,8.51
2023-02-19T04:37:39.777Z,8.51
2023-02-19T04:38:12.372Z,8.50
2023-02-19T04:38:43.984Z,8.52
2023-02-19T04:39:15.588Z,8.47
2023-02-19T04:39:48.054Z,8.45
2023-02-19T04:40:19.692Z,8.48
2023-02-19T04:40:51.560Z,8.47
2023-02-19T04:41:23.209Z,8.45
2023-02-19T04:41:54.764Z,8.49
2023-02-19T04:42:26.433Z,8.49
2023-02-19T04:42:58.044Z,8.44
2023-02-19T04:43:29.626Z,8.45
2023-02-19T04:44:01.211Z,8.49
2023-02-19T04:44:33.841Z,8.49
2023-02-19T04:45:05.712Z,8.46
2023-02-19T04:45:38.466Z,8.43
2023-02-19T04:46:10.094Z,8.46
2023-02-19T04:46:43.160Z,8.47
2023-02-19T04:47:17.796Z,8.50
2023-02-19T04:47:49.353Z,8.47
2023-02-19T04:48:21.052Z,8.46
2023-02-19T04:48:52.662Z,8.38
2023-02-19T04:49:24.309Z,8.38
2023-02-19T04:49:55.900Z,8.47
2023-02-19T04:50:27.511Z,8.46
2023-02-19T04:50:59.178Z,8.45
2023-02-19T04:51:30.769Z,8.43
2023-02-19T04:52:02.334Z,8.45
2023-02-19T04:52:33.992Z,8.41
2023-02-19T04:53:06.187Z,8.44
2023-02-19T04:53:37.902Z,8.42
2023-02-19T04:54:09.573Z,8.41
2023-02-19T04:54:41.148Z,8.50
2023-02-19T04:55:12.709Z,8.48
2023-02-19T04:55:45.630Z,8.47
2023-02-19T04:56:17.674Z,8.43
2023-02-19T04:56:50.754Z,8.40
2023-02-19T04:57:22.310Z,8.36
2023-02-19T04:57:53.912Z,8.36
2023-02-19T04:58:25.546Z,8.42
2023-02-19T04:58:57.358Z,8.42
2023-02-19T04:59:28.959Z,8.36
2023-02-19T05:00:00.562Z,8.39
2023-02-19T05:00:33.880Z,8.40
2023-02-19T05:01:05.657Z,8.38
2023-02-19T05:01:37.368Z,8.38
2023-02-19T05:02:09.009Z,8.40
2023-02-19T05:02:40.736Z,8.46
2023-02-19T05:03:12.304Z,8.43
2023-02-19T05:03:44.524Z,8.40
2023-02-19T05:04:16.207Z,8.40
2023-02-19T05:04:47.980Z,8.38
2023-02-19T05:05:19.558Z,8.40
2023-02-19T05:05:51.124Z,8.46
2023-02-19T05:06:22.675Z,8.40
2023-02-19T05:06:54.308Z,8.38
2023-02-19T05:07:25.919Z,8.36
2023-02-19T05:07:57.539Z,8.42
2023-02-19T05:08:29.226Z,8.41
2023-02-19T05:09:00.843Z,8.48
2023-02-19T05:09:32.453Z,8.42
2023-02-19T05:10:04.152Z,8.38
2023-02-19T05:10:35.687Z,8.31
2023-02-19T05:11:10.815Z,8.38
2023-02-19T05:11:42.669Z,8.42
2023-02-19T05:12:14.259Z,8.35
2023-02-19T05:12:46.005Z,8.33
2023-02-19T05:13:18.010Z,8.35
2023-02-19T05:13:49.584Z,8.37
2023-02-19T05:14:21.259Z,8.48
2023-02-19T05:14:52.934Z,8.41
2023-02-19T05:15:24.474Z,8.35
2023-02-19T05:16:00.725Z,8.46
2023-02-19T05:16:33.232Z,8.46
2023-02-19T05:17:05.112Z,8.47
2023-02-19T05:17:36.932Z,8.44
2023-02-19T05:18:08.498Z,8.40
2023-02-19T05:18:41.388Z,8.40
2023-02-19T05:19:13.735Z,8.40
2023-02-19T05:19:45.326Z,8.43
2023-02-19T05:20:17.183Z,8.44
2023-02-19T05:20:49.371Z,8.43
2023-02-19T05:21:21.016Z,8.41
2023-02-19T05:21:52.583Z,8.35
2023-02-19T05:22:24.202Z,8.43
2023-02-19T05:22:55.898Z,8.43
2023-02-19T05:23:27.965Z,8.43
2023-02-19T05:23:59.488Z,8.48
2023-02-19T05:24:31.592Z,8.44
2023-02-19T05:25:03.250Z,8.38
2023-02-19T05:25:34.903Z,8.36
2023-02-19T05:26:08.415Z,8.35
2023-02-19T05:26:40.070Z,8.41
2023-02-19T05:27:11.736Z,8.37
2023-02-19T05:27:43.654Z,8.34
2023-02-19T05:28:18.086Z,8.32
2023-02-19T05:28:52.028Z,8.35
2023-02-19T05:29:23.589Z,8.33
2023-02-19T05:29:55.207Z,8.33
2023-02-19T05:30:26.744Z,8.30
2023-02-19T05:30:58.414Z,8.33
2023-02-19T05:31:30.430Z,8.30
2023-02-19T05:32:02.125Z,8.31
2023-02-19T05:32:35.235Z,8.38
2023-02-19T05:33:06.781Z,8.34
2023-02-19T05:33:38.453Z,8.35
2023-02-19T05:34:10.171Z,8.35
2023-02-19T05:34:41.723Z,8.27
2023-02-19T05:35:13.311Z,8.28
2023-02-19T05:35:47.470Z,8.41
2023-02-19T05:36:20.790Z,8.33
2023-02-19T05:36:52.389Z,8.32
2023-02-19T05:37:23.938Z,8.33
2023-02-19T05:37:55.539Z,8.32
2023-02-19T05:38:27.263Z,8.34
2023-02-19T05:38:58.846Z,8.26
2023-02-19T05:39:30.390Z,8.33
2023-02-19T05:40:01.974Z,8.29
2023-02-19T05:40:34.205Z,8.33
2023-02-19T05:41:14.643Z,8.31
2023-02-19T05:41:46.196Z,8.31
2023-02-19T05:42:17.756Z,8.27
2023-02-19T05:42:49.317Z,8.29
2023-02-19T05:43:20.933Z,8.29
2023-02-19T05:43:53.210Z,8.27
2023-02-19T05:44:24.899Z,8.33
2023-02-19T05:44:56.443Z,8.32
2023-02-19T05:45:27.983Z,8.39
2023-02-19T05:45:59.602Z,8.36
2023-02-19T05:46:31.519Z,8.36
2023-02-19T05:47:03.204Z,8.36
2023-02-19T05:47:34.757Z,8.32
2023-02-19T05:48:07.578Z,8.30
2023-02-19T05:48:39.382Z,8.38
2023-02-19T05:49:10.976Z,8.38
2023-02-19T05:49:42.503Z,8.31
2023-02-19T05:50:14.130Z,8.25
2023-02-19T05:50:45.796Z,8.30
2023-02-19T05:51:22.192Z,8.41
2023-02-19T05:51:53.734Z,8.40
2023-02-19T05:52:25.406Z,8.33
2023-02-19T05:52:56.968Z,8.28
2023-02-19T05:53:28.985Z,8.27
2023-02-19T05:54:00.589Z,8.26
2023-02-19T05:54:32.432Z,8.36
2023-02-19T05:55:04.145Z,8.35
2023-02-19T05:55:36.233Z,8.32
2023-02-19T05:56:26.062Z,8.25
2023-02-19T05:56:58.330Z,8.27
2023-02-19T05:57:29.877Z,8.25
2023-02-19T05:58:01.789Z,8.29
2023-02-19T05:58:33.329Z,8.20
2023-02-19T05:59:08.261Z,8.21
2023-02-19T05:59:39.814Z,8.29
2023-02-19T06:00:13.426Z,8.22
2023-02-19T06:00:44.998Z,8.23
2023-02-19T06:01:17.792Z,8.19
2023-02-19T06:01:51.266Z,8.29
2023-02-19T06:02:22.847Z,8.31
2023-02-19T06:02:54.685Z,8.28
2023-02-19T06:03:26.381Z,8.32
2023-02-19T06:03:58.359Z,8.27
2023-02-19T06:04:29.984Z,8.21
2023-02-19T06:05:01.561Z,8.20
2023-02-19T06:05:33.106Z,8.22
2023-02-19T06:06:04.944Z,8.18
2023-02-19T06:06:37.334Z,8.23
2023-02-19T06:07:09.282Z,8.25
2023-02-19T06:07:41.812Z,8.24
2023-02-19T06:08:14.047Z,8.19
2023-02-19T06:08:45.841Z,8.18
2023-02-19T06:09:17.682Z,8.20
2023-02-19T06:09:51.192Z,8.18
2023-02-19T06:10:23.437Z,8.20
2023-02-19T06:10:55.018Z,8.14
2023-02-19T06:11:26.587Z,8.13
2023-02-19T06:11:58.205Z,8.15
2023-02-19T06:12:29.781Z,8.16
2023-02-19T06:13:01.305Z,8.19
2023-02-19T06:13:33.063Z,8.20
2023-02-19T06:14:05.509Z,8.20
2023-02-19T06:14:37.108Z,8.17
2023-02-19T06:15:08.844Z,8.14
2023-02-19T06:15:40.521Z,8.18
2023-02-19T06:16:12.310Z,8.17
2023-02-19T06:16:43.976Z,8.12
2023-02-19T06:17:15.851Z,8.13
2023-02-19T06:17:47.825Z,8.20
2023-02-19T06:18:19.365Z,8.18
2023-02-19T06:18:51.358Z,8.19
2023-02-19T06:19:22.896Z,8.15
2023-02-19T06:19:54.446Z,8.15
2023-02-19T06:20:26.395Z,8.16
2023-02-19T06:21:02.086Z,8.17
2023-02-19T06:21:34.068Z,8.21
2023-02-19T06:22:05.827Z,8.17
2023-02-19T06:22:37.540Z,8.21
2023-02-19T06:23:09.205Z,8.18
2023-02-19T06:23:41.239Z,8.17
2023-02-19T06:24:12.808Z,8.10
2023-02-19T06:24:44.425Z,8.11
2023-02-19T06:25:16.355Z,8.17
2023-02-19T06:25:47.909Z,8.11
2023-02-19T06:26:24.748Z,8.19
2023-02-19T06:26:56.422Z,8.16
2023-02-19T06:27:28.337Z,8.21
2023-02-19T06:27:59.838Z,8.06
2023-02-19T06:28:31.410Z,8.14
2023-02-19T06:29:03.056Z,8.06
2023-02-19T06:29:34.752Z,8.11
2023-02-19T06:30:06.955Z,8.12
2023-02-19T06:30:38.528Z,8.10
2023-02-19T06:31:11.365Z,8.15
2023-02-19T06:31:44.354Z,8.12
2023-02-19T06:32:16.115Z,8.08
2023-02-19T06:32:47.821Z,8.05
2023-02-19T06:33:19.425Z,8.04
2023-02-19T06:33:51.028Z,8.08
2023-02-19T06:34:22.596Z,8.09
2023-02-19T06:34:54.140Z,8.16
2023-02-19T06:35:25.708Z,8.08
2023-02-19T06:36:01.950Z,8.08
2023-02-19T06:36:33.666Z,8.10
2023-02-19T06:37:05.248Z,8.12
2023-02-19T06:37:36.806Z,8.06
2023-02-19T06:38:08.346Z,8.14
2023-02-19T06:38:40.041Z,8.12
2023-02-19T06:39:11.591Z,8.11
2023-02-19T06:39:43.876Z,8.10
2023-02-19T06:40:16.091Z,8.05
2023-02-19T06:40:47.679Z,8.07
2023-02-19T06:41:19.541Z,8.05
2023-02-19T06:41:51.098Z,8.03
2023-02-19T06:42:22.754Z,8.10
2023-02-19T06:42:54.313Z,8.12
2023-02-19T06:43:25.912Z,8.13
2023-02-19T06:43:58.402Z,8.11
2023-02-19T06:44:30.090Z,8.08
2023-02-19T06:45:01.624Z,8.10
2023-02-19T06:45:33.165Z,8.07
2023-02-19T06:46:06.571Z,8.04
2023-02-19T06:46:38.299Z,8.06
2023-02-19T06:47:09.954Z,8.10
2023-02-19T06:47:41.486Z,8.05
2023-02-19T06:48:13.321Z,8.05
2023-02-19T06:48:45.483Z,8.09
2023-02-19T06:49:17.129Z,8.05
2023-02-19T06:49:48.750Z,8.04
2023-02-19T06:50:20.298Z,8.05
2023-02-19T06:50:51.992Z,8.07
2023-02-19T06:51:26.344Z,8.05
2023-02-19T06:51:59.193Z,8.02
2023-02-19T06:52:30.740Z,8.17
2023-02-19T06:53:02.359Z,8.13
2023-02-19T06:53:33.941Z,8.14
2023-02-19T06:54:05.926Z,8.17
2023-02-19T06:54:37.531Z,8.11
2023-02-19T06:55:09.315Z,8.07
2023-02-19T06:55:41.370Z,8.18
2023-02-19T06:56:31.192Z,8.18
2023-02-19T06:57:03.315Z,8.23
2023-02-19T06:57:34.882Z,8.15
2023-02-19T06:58:07.823Z,8.06
2023-02-19T06:58:39.425Z,8.06
2023-02-19T06:59:16.859Z,8.13
2023-02-19T06:59:48.572Z,8.06
2023-02-19T07:00:20.303Z,8.06
2023-02-19T07:00:52.049Z,8.07
2023-02-19T07:01:24.212Z,8.09
2023-02-19T07:01:55.748Z,8.10
2023-02-19T07:02:27.328Z,8.08
2023-02-19T07:02:58.881Z,8.23
2023-02-19T07:03:30.484Z,8.12
2023-02-19T07:04:02.748Z,8.19
2023-02-19T07:04:34.441Z,8.24
2023-02-19T07:05:06.424Z,8.24
2023-02-19T07:05:37.956Z,8.17
2023-02-19T07:06:09.581Z,8.14
2023-02-19T07:06:41.425Z,8.16
2023-02-19T07:07:12.974Z,8.19
2023-02-19T07:07:45.945Z,8.16
2023-02-19T07:08:17.739Z,8.22
2023-02-19T07:08:50.088Z,8.16
2023-02-19T07:09:21.904Z,8.14
2023-02-19T07:09:53.477Z,8.09
2023-02-19T07:10:25.002Z,8.13
2023-02-19T07:10:57.890Z,8.17
2023-02-19T07:11:32.332Z,8.24
2023-02-19T07:12:04.197Z,8.20
2023-02-19T07:12:35.760Z,8.16
2023-02-19T07:13:07.349Z,8.12
2023-02-19T07:13:38.913Z,8.08
2023-02-19T07:14:15.128Z,8.15
2023-02-19T07:14:46.683Z,8.13
2023-02-19T07:15:18.430Z,8.12
2023-02-19T07:15:52.096Z,8.11
2023-02-19T07:16:24.037Z,8.19
2023-02-19T07:16:55.792Z,8.12
2023-02-19T07:17:27.338Z,8.13
2023-02-19T07:17:59.354Z,8.12
2023-02-19T07:18:31.312Z,8.13
2023-02-19T07:19:03.330Z,8.16
2023-02-19T07:19:34.976Z,8.07
2023-02-19T07:20:06.653Z,8.04
2023-02-19T07:20:40.260Z,8.00
2023-02-19T07:21:13.815Z,8.06
2023-02-19T07:21:45.471Z,8.07
2023-02-19T07:22:17.078Z,8.19
2023-02-19T07:22:48.629Z,8.16
2023-02-19T07:23:20.426Z,8.15
2023-02-19T07:23:52.419Z,8.09
2023-02-19T07:24:24.018Z,8.04
2023-02-19T07:24:55.620Z,8.04
2023-02-19T07:25:27.219Z,8.04
2023-02-19T07:25:59.001Z,8.05
2023-02-19T07:26:30.544Z,8.05
2023-02-19T07:27:02.129Z,8.08
2023-02-19T07:27:33.751Z,8.04
2023-02-19T07:28:06.235Z,8.01
2023-02-19T07:28:37.965Z,8.02
2023-02-19T07:29:09.968Z,8.03
2023-02-19T07:29:41.567Z,8.04
2023-02-19T07:30:13.355Z,8.09
2023-02-19T07:30:44.935Z,8.09
2023-02-19T07:31:18.352Z,8.11
2023-02-19T07:31:50.013Z,8.04
2023-02-19T07:32:21.583Z,8.13
2023-02-19T07:32:53.163Z,8.15
2023-02-19T07:33:24.699Z,8.15
2023-02-19T07:33:56.477Z,8.16
2023-02-19T07:34:28.209Z,8.11
2023-02-19T07:34:59.919Z,8.10
2023-02-19T07:35:31.528Z,8.13
2023-02-19T07:36:03.117Z,8.09
2023-02-19T07:36:34.684Z,8.13
2023-02-19T07:37:06.209Z,8.16
2023-02-19T07:37:37.971Z,8.06
2023-02-19T07:38:09.601Z,8.08
2023-02-19T07:38:41.322Z,8.16
2023-02-19T07:39:14.123Z,8.29
2023-02-19T07:39:45.789Z,8.14
2023-02-19T07:40:17.463Z,8.16
2023-02-19T07:40:56.254Z,8.20
2023-02-19T07:41:28.330Z,8.06
2023-02-19T07:42:02.279Z,8.08
2023-02-19T07:42:36.948Z,8.14
2023-02-19T07:43:08.501Z,8.12
2023-02-19T07:43:40.628Z,8.19
2023-02-19T07:44:16.416Z,8.09
2023-02-19T07:44:47.975Z,8.02
2023-02-19T07:45:19.548Z,8.05
2023-02-19T07:45:51.321Z,8.03
2023-02-19T07:46:23.446Z,7.99